Time;durP1;ratioP1;P1;durP2;ratioP2;P2;SDS_P1;SDS_P2;PMS_P1;PMS_P2;Temp;Humidity;BMP_temperature;BMP_pressure;BME280_temperature;BME280_humidity;BME280_pressure;Samples;Min_cycle;Max_cycle;Signal;HPM_P1;HPM_P2
2023/01/16 00:01:01;;;;;;;1.17;0.50;;;;;;;3.32;73.85;98726.53;10503751;28;20068;-73
2023/01/16 00:06:04;;;;;;;1.40;0.65;;;;;;;3.13;74.75;98711.38;10503987;28;20049;-73
2023/01/16 00:11:06;;;;;;;1.52;0.60;;;;;;;3.24;75.09;98703.34;10503945;28;20045;-73
2023/01/16 00:16:09;;;;;;;0.90;0.52;;;;;;;2.92;76.18;98710.13;10503921;28;20120;-73
2023/01/16 00:21:11;;;;;;;0.90;0.55;;;;;;;2.89;76.63;98706.75;10486357;28;20075;-73
2023/01/16 00:26:12;;;;;;;1.02;0.52;;;;;;;2.67;77.15;98699.44;10484970;28;20048;-73
2023/01/16 00:31:16;;;;;;;1.15;0.70;;;;;;;2.76;78.10;98690.59;10503132;28;20043;-73
2023/01/16 00:36:17;;;;;;;2.58;0.73;;;;;;;2.59;78.01;98677.13;10503199;28;20101;-72
2023/01/16 00:41:19;;;;;;;1.77;0.60;;;;;;;2.14;80.34;98672.84;10502879;28;20048;-72
2023/01/16 00:46:21;;;;;;;2.33;0.60;;;;;;;1.89;81.98;98659.50;10501876;28;20468;-72
2023/01/16 00:51:23;;;;;;;1.83;0.60;;;;;;;1.69;82.97;98656.44;10483524;28;20054;-72
2023/01/16 00:56:24;;;;;;;2.97;0.88;;;;;;;1.56;84.23;98649.75;10501613;28;20041;-72
2023/01/16 01:01:44;;;;;;;1.23;0.50;;;;;;;1.56;84.37;98644.59;10501860;28;20113;-73
2023/01/16 01:07:03;;;;;;;1.08;0.50;;;;;;;1.60;85.12;98652.28;10483164;28;20129;-72
2023/01/16 01:12:05;;;;;;;2.53;0.47;;;;;;;1.64;85.21;98651.34;10482447;28;20054;-72
2023/01/16 01:17:07;;;;;;;2.13;0.63;;;;;;;1.74;85.09;98649.44;10483168;28;20441;-72
2023/01/16 01:22:08;;;;;;;2.90;0.70;;;;;;;1.82;84.77;98655.31;10482601;28;20044;-72
2023/01/16 01:27:10;;;;;;;1.17;0.60;;;;;;;2.08;83.03;98649.66;10500158;28;20045;-72
2023/01/16 01:32:12;;;;;;;2.78;0.77;;;;;;;2.42;80.61;98634.22;10500253;28;20044;-72
2023/01/16 01:37:14;;;;;;;2.13;0.60;;;;;;;2.39;80.24;98625.66;10499505;28;20504;-72
2023/01/16 01:47:39;;;;;;;1.92;0.60;;;;;;;2.84;77.37;98605.66;10481448;28;20068;-73
2023/01/16 01:52:41;;;;;;;3.08;0.60;;;;;;;2.92;76.43;98598.53;10481994;28;20452;-71
2023/01/16 01:57:48;;;;;;;3.42;0.63;;;;;;;2.79;77.29;98594.53;10482346;28;20045;-72
2023/01/16 02:03:00;;;;;;;3.60;0.70;;;;;;;2.56;78.47;98589.00;10499254;28;20079;-72
2023/01/16 02:08:06;;;;;;;5.88;0.73;;;;;;;2.45;78.86;98584.91;10499072;28;20036;-72
2023/01/16 02:13:08;;;;;;;1.88;0.60;;;;;;;2.34;79.35;98579.09;10499144;28;20044;-72
2023/01/16 02:23:48;;;;;;;2.50;0.68;;;;;;;2.22;80.44;98567.25;10500230;28;20096;-72
2023/01/16 02:29:08;;;;;;;2.03;0.47;;;;;;;2.23;81.31;98558.59;10498370;28;20550;-72
2023/01/16 02:34:18;;;;;;;3.33;0.70;;;;;;;2.12;81.26;98554.50;10482027;28;20070;-71
2023/01/16 02:39:33;;;;;;;1.75;0.60;;;;;;;2.11;81.04;98535.50;10480360;28;20048;-72
2023/01/16 02:44:41;;;;;;;0.98;0.60;;;;;;;2.16;80.54;98525.91;10480288;28;20456;-72
2023/01/16 02:49:53;;;;;;;1.75;0.60;;;;;;;2.15;80.82;98512.97;10503281;28;20060;-72
2023/01/16 02:55:03;;;;;;;1.83;0.55;;;;;;;2.30;80.01;98488.44;10489235;28;20041;-71
2023/01/16 03:00:07;;;;;;;2.85;0.73;;;;;;;2.34;79.35;98496.09;10505522;28;20456;-73
2023/01/16 03:05:09;;;;;;;2.58;0.45;;;;;;;2.21;79.85;98499.88;10506086;28;20120;-72
2023/01/16 03:10:18;;;;;;;3.33;0.70;;;;;;;2.27;78.61;98490.22;10506313;28;20047;-71
2023/01/16 03:15:34;;;;;;;2.15;0.70;;;;;;;2.25;78.73;98485.94;10506231;28;20045;-73
2023/01/16 03:20:57;;;;;;;3.30;0.70;;;;;;;2.27;78.81;98479.84;10505991;28;20453;-72
2023/01/16 03:26:13;;;;;;;1.88;0.60;;;;;;;2.26;78.64;98477.31;10506566;28;20040;-72
2023/01/16 03:31:33;;;;;;;8.20;0.80;;;;;;;2.21;78.20;98472.22;10489088;28;20457;-71
2023/01/16 03:36:42;;;;;;;1.70;0.63;;;;;;;2.03;79.52;98465.69;10506974;28;20040;-72
2023/01/16 03:41:47;;;;;;;2.85;0.80;;;;;;;1.89;80.51;98457.38;10507234;28;20032;-71
2023/01/16 03:46:49;;;;;;;2.85;0.68;;;;;;;1.84;80.49;98454.03;10487735;28;20053;-72
2023/01/16 03:51:58;;;;;;;1.63;0.63;;;;;;;1.76;81.18;98436.06;10487849;28;20131;-73
2023/01/16 03:57:22;;;;;;;4.38;0.70;;;;;;;1.77;81.08;98432.63;10487817;28;20044;-73
2023/01/16 04:02:30;;;;;;;2.10;0.70;;;;;;;2.18;79.12;98417.00;10505371;28;20424;-73
2023/01/16 04:07:34;;;;;;;1.85;0.60;;;;;;;2.69;76.45;98401.03;10471270;28;20438;-72
2023/01/16 04:12:42;;;;;;;2.05;0.90;;;;;;;3.04;74.01;98398.31;10488046;28;20048;-72
2023/01/16 04:17:44;;;;;;;1.83;0.70;;;;;;;2.96;74.70;98402.88;10505917;28;20036;-72
2023/01/16 04:22:50;;;;;;;2.17;0.70;;;;;;;2.67;75.90;98395.88;10487777;28;20044;-71
2023/01/16 04:27:52;;;;;;;3.88;0.80;;;;;;;2.75;75.15;98385.31;10485727;28;20144;-72
2023/01/16 04:32:53;;;;;;;1.85;1.02;;;;;;;2.72;75.82;98377.59;10486522;28;20048;-73
2023/01/16 04:37:55;;;;;;;3.03;0.90;;;;;;;2.42;77.49;98374.06;10503256;28;20135;-73
2023/01/16 04:42:57;;;;;;;4.93;1.77;;;;;;;2.19;78.82;98359.09;10485172;28;20051;-72
2023/01/16 04:47:59;;;;;;;1.77;0.80;;;;;;;2.03;79.60;98351.66;10501828;28;20067;-74
2023/01/16 04:53:00;;;;;;;2.75;1.00;;;;;;;2.31;78.49;98351.00;10500809;28;20115;-73
2023/01/16 04:58:02;;;;;;;2.92;1.15;;;;;;;2.19;79.03;98352.16;10483850;28;20045;-72
2023/01/16 05:03:04;;;;;;;2.40;0.93;;;;;;;2.62;76.86;98348.47;10483295;28;20062;-72
2023/01/16 05:08:18;;;;;;;2.58;0.90;;;;;;;2.49;77.81;98329.78;10483542;28;20387;-72
2023/01/16 05:13:21;;;;;;;3.35;0.88;;;;;;;2.69;76.51;98315.41;10501091;28;20059;-71
2023/01/16 05:18:23;;;;;;;2.15;0.93;;;;;;;2.88;75.42;98315.75;10501075;28;20062;-72
2023/01/16 05:23:25;;;;;;;3.35;1.08;;;;;;;2.90;75.49;98306.19;10500950;28;20048;-72
2023/01/16 05:28:27;;;;;;;2.90;1.15;;;;;;;2.82;75.16;98298.59;10499693;28;20480;-72
2023/01/16 05:33:29;;;;;;;2.22;1.10;;;;;;;3.06;74.00;98278.06;10500431;28;20063;-73
2023/01/16 05:38:30;;;;;;;2.83;0.98;;;;;;;2.79;75.38;98272.75;10499415;28;20037;-72
2023/01/16 05:43:32;;;;;;;2.95;1.00;;;;;;;2.84;74.66;98263.09;10499587;28;20037;-72
2023/01/16 05:48:35;;;;;;;3.05;1.65;;;;;;;2.91;74.42;98248.19;10481129;28;20048;-72
2023/01/16 05:53:37;;;;;;;2.45;1.40;;;;;;;3.01;73.63;98241.81;10499851;28;20371;-72
2023/01/16 05:58:39;;;;;;;2.08;1.40;;;;;;;3.11;72.79;98255.41;10499856;28;20048;-73
2023/01/16 06:03:41;;;;;;;2.72;1.23;;;;;;;2.99;73.30;98238.44;10499305;28;20123;-71
2023/01/16 06:08:43;;;;;;;2.47;1.42;;;;;;;2.99;73.36;98235.84;10498714;28;20112;-72
2023/01/16 06:13:45;;;;;;;3.45;1.60;;;;;;;3.02;73.23;98235.75;10499310;28;20076;-73
2023/01/16 06:18:47;;;;;;;2.22;1.33;;;;;;;2.99;72.68;98221.09;10499521;28;20052;-72
2023/01/16 06:23:49;;;;;;;2.30;1.20;;;;;;;2.95;73.08;98221.25;10501547;28;20516;-73
2023/01/16 06:28:50;;;;;;;1.70;1.30;;;;;;;2.88;73.52;98206.75;10488119;28;20087;-72
2023/01/16 06:33:52;;;;;;;2.08;1.08;;;;;;;2.86;73.28;98204.22;10507010;28;20060;-72
2023/01/16 06:38:54;;;;;;;2.80;1.30;;;;;;;2.69;74.25;98191.72;10488860;28;20043;-72
2023/01/16 06:43:56;;;;;;;3.42;1.08;;;;;;;2.87;73.52;98195.50;10488916;28;20051;-71
2023/01/16 06:48:58;;;;;;;1.90;1.08;;;;;;;2.98;72.82;98216.81;10489395;28;20406;-72
2023/01/16 06:54:02;;;;;;;3.17;1.20;;;;;;;2.84;73.40;98206.00;10506863;28;20524;-72
2023/01/16 06:59:04;;;;;;;2.60;1.30;;;;;;;2.78;74.02;98208.78;10489057;28;20048;-72
2023/01/16 07:04:06;;;;;;;2.05;1.30;;;;;;;2.78;74.35;98201.81;10507123;28;20119;-72
2023/01/16 07:09:08;;;;;;;2.78;1.42;;;;;;;2.67;75.33;98206.50;10506018;28;20148;-73
2023/01/16 07:24:51;;;;;;;2.03;0.95;;;;;;;2.69;74.98;98173.56;10505668;28;20075;-72
2023/01/16 07:29:53;;;;;;;2.55;1.10;;;;;;;2.66;75.19;98185.81;10504997;28;20044;-72
2023/01/16 07:34:56;;;;;;;4.68;1.08;;;;;;;2.87;73.92;98179.94;10512839;28;20115;-74
2023/01/16 07:39:58;;;;;;;4.10;1.20;;;;;;;3.01;73.15;98176.94;10489187;28;20055;-73
2023/01/16 07:44:59;;;;;;;2.10;1.45;;;;;;;3.00;72.72;98183.88;10493927;28;20052;-73
2023/01/16 07:50:01;;;;;;;2.10;1.10;;;;;;;3.00;73.26;98177.81;10488830;28;20110;-73
2023/01/16 07:55:03;;;;;;;3.80;1.23;;;;;;;3.14;72.30;98156.63;10490173;28;20531;-72
2023/01/16 08:00:08;;;;;;;2.17;1.10;;;;;;;3.22;72.07;98141.66;10474372;28;20048;-73
2023/01/16 08:05:12;;;;;;;3.63;0.80;;;;;;;3.12;72.53;98130.72;10507375;28;20053;-72
2023/01/16 08:10:14;;;;;;;2.55;0.80;;;;;;;3.04;72.15;98115.38;10506866;28;20390;-72
2023/01/16 08:15:16;;;;;;;1.27;0.65;;;;;;;3.14;72.17;98107.31;10505179;28;20093;-72
2023/01/16 08:20:17;;;;;;;2.40;0.98;;;;;;;3.18;71.55;98088.97;10486284;28;20068;-73
2023/01/16 08:25:21;;;;;;;2.13;0.82;;;;;;;3.26;71.27;98088.72;10504892;28;20136;-73
2023/01/16 08:30:23;;;;;;;1.67;0.70;;;;;;;3.31;70.97;98075.59;10503660;28;20058;-72
2023/01/16 08:35:25;;;;;;;2.90;0.70;;;;;;;3.34;70.77;98065.97;10485494;28;20346;-73
2023/01/16 08:40:28;;;;;;;3.92;1.02;;;;;;;3.63;69.15;98051.97;10503021;28;20048;-72
2023/01/16 08:56:12;;;;;;;1.73;0.70;;;;;;;3.56;69.35;98021.06;10503060;28;20042;-72
2023/01/16 09:01:15;;;;;;;0.73;0.45;;;;;;;3.60;68.34;98009.66;10483626;28;20045;-72
2023/01/16 09:06:17;;;;;;;1.92;0.60;;;;;;;3.69;67.87;98001.53;10483564;28;20127;-72
2023/01/16 09:16:38;;;;;;;2.28;1.17;;;;;;;4.06;68.57;97985.38;10484718;28;20425;-73
2023/01/16 09:21:40;;;;;;;3.88;1.10;;;;;;;4.20;68.50;97975.31;10482376;28;20044;-72
2023/01/16 09:26:42;;;;;;;3.92;1.15;;;;;;;4.45;67.48;97958.75;10482677;28;20051;-71
2023/01/16 09:31:43;;;;;;;6.07;1.10;;;;;;;4.50;66.52;97947.22;10482532;28;20039;-72
2023/01/16 09:36:45;;;;;;;2.50;0.90;;;;;;;4.39;66.50;97935.59;10482838;28;20074;-72
2023/01/16 09:47:33;;;;;;;2.25;1.10;;;;;;;4.82;63.08;97906.00;10480515;28;20490;-72
2023/01/16 10:03:19;;;;;;;1.38;0.70;;;;;;;4.80;63.89;97881.81;10443909;28;20045;-72
2023/01/16 10:08:38;;;;;;;3.05;1.13;;;;;;;4.66;64.34;97866.78;10467719;28;20048;-73
2023/01/16 10:14:02;;;;;;;3.17;0.93;;;;;;;4.99;63.36;97845.41;10499918;28;20555;-71
2023/01/16 10:19:26;;;;;;;2.55;0.60;;;;;;;4.92;63.88;97834.44;10495955;28;20037;-72
2023/01/16 10:24:43;;;;;;;1.67;0.68;;;;;;;5.35;61.43;97819.47;10459227;28;20067;-72
2023/01/16 10:29:53;;;;;;;1.95;0.70;;;;;;;5.31;60.88;97802.28;10443474;28;20125;-72
2023/01/16 10:35:23;;;;;;;13.45;4.53;;;;;;;5.39;61.08;97792.34;10459972;28;20376;-72
2023/01/16 10:40:29;;;;;;;4.18;1.77;;;;;;;5.54;60.69;97769.97;10439234;28;20136;-72
2023/01/16 10:50:57;;;;;;;3.55;1.25;;;;;;;5.53;60.21;97745.66;10498740;28;20136;-72
2023/01/16 10:55:58;;;;;;;1.70;0.50;;;;;;;5.52;59.87;97728.31;10498350;28;20052;-72
2023/01/16 11:01:13;;;;;;;3.10;0.75;;;;;;;5.88;59.04;97710.97;10499089;28;20120;-72
2023/01/16 11:06:18;;;;;;;5.05;1.17;;;;;;;5.77;59.70;97698.47;10499928;28;20053;-72
2023/01/16 11:22:06;;;;;;;2.00;0.50;;;;;;;8.80;48.51;97650.16;10487224;28;20044;-72
2023/01/16 11:27:18;;;;;;;1.80;0.60;;;;;;;10.29;46.24;97643.91;10488021;28;20047;-72
2023/01/16 11:32:24;;;;;;;2.10;0.70;;;;;;;10.90;44.70;97618.59;10505067;28;20109;-72
2023/01/16 11:37:28;;;;;;;;;;;;;;;10.63;45.50;97608.25;10505256;28;20041;-71
2023/01/16 11:47:54;;;;;;;1.48;0.70;;;;;;;11.40;46.96;97579.88;10505531;28;20036;-74
2023/01/16 11:52:55;;;;;;;1.33;0.50;;;;;;;11.41;43.09;97573.66;10504406;28;20044;-72
2023/01/16 11:58:06;;;;;;;1.88;0.60;;;;;;;11.37;44.51;97551.16;10486162;28;20044;-72
2023/01/16 12:03:45;;;;;;;1.80;0.63;;;;;;;10.52;44.37;97550.38;10486099;28;20044;-72
2023/01/16 12:08:56;;;;;;;4.30;1.05;;;;;;;10.14;46.32;97540.78;10486108;28;20036;-73
2023/01/16 12:14:20;;;;;;;2.33;1.30;;;;;;;9.10;47.28;97532.91;10503876;28;20098;-72
2023/01/16 12:20:01;;;;;;;2.67;1.10;;;;;;;8.22;49.80;97543.78;10503040;28;20112;-73
2023/01/16 12:25:28;;;;;;;2.53;0.93;;;;;;;7.92;50.61;97521.16;10503645;28;20405;-73
2023/01/16 12:31:10;;;;;;;2.67;1.40;;;;;;;7.86;50.67;97523.34;10503076;28;20486;-73
2023/01/16 12:36:46;;;;;;;1.80;0.90;;;;;;;7.68;51.46;97512.22;10502244;28;20044;-72
2023/01/16 12:47:35;;;;;;;2.22;0.98;;;;;;;7.21;53.13;97498.41;10501717;28;20051;-72
2023/01/16 12:52:37;;;;;;;1.65;1.20;;;;;;;7.08;53.54;97493.09;10484448;28;20135;-72
2023/01/16 12:57:53;;;;;;;2.72;1.20;;;;;;;7.03;53.28;97481.19;10485250;28;20049;-73
2023/01/16 13:03:20;;;;;;;3.88;1.48;;;;;;;7.00;54.08;97470.94;10484330;28;20446;-73
2023/01/16 13:08:25;;;;;;;;;;;;;;;6.95;54.51;97466.00;10501629;28;20490;-72
2023/01/16 13:13:32;;;;;;;4.10;1.23;;;;;;;6.48;56.92;97459.09;10502141;28;19927;-73
2023/01/16 13:18:42;;;;;;;3.40;1.43;;;;;;;6.68;55.37;97455.34;10483688;28;20050;-73
2023/01/16 13:23:50;;;;;;;2.50;1.30;;;;;;;6.59;56.33;97453.25;10484564;28;20040;-73
2023/01/16 13:29:07;;;;;;;3.60;1.50;;;;;;;6.47;57.25;97451.38;10483299;28;20059;-73
2023/01/16 13:34:18;;;;;;;4.28;1.40;;;;;;;6.53;57.43;97438.78;10483024;28;20048;-73
2023/01/16 13:39:23;;;;;;;4.22;1.40;;;;;;;6.41;57.12;97423.81;10482740;28;20051;-73
2023/01/16 13:50:24;;;;;;;4.30;1.00;;;;;;;6.00;58.66;97411.34;10499395;28;20040;-72
2023/01/16 13:55:32;;;;;;;2.40;1.30;;;;;;;6.04;59.16;97409.41;10490994;28;20591;-72
2023/01/16 14:00:37;;;;;;;2.20;1.17;;;;;;;5.81;60.02;97387.19;10464755;28;20486;-73
2023/01/16 14:05:38;;;;;;;2.80;1.30;;;;;;;5.66;60.15;97382.78;10481908;28;20052;-72
2023/01/16 14:10:41;;;;;;;2.55;1.33;;;;;;;5.75;60.00;97377.91;10499997;28;20498;-73
2023/01/16 14:21:20;;;;;;;6.65;1.40;;;;;;;5.79;59.95;97352.53;10498878;28;20044;-72
2023/01/16 14:26:44;;;;;;;4.25;1.20;;;;;;;5.66;59.98;97346.28;10480421;28;20417;-72
2023/01/16 14:31:54;;;;;;;3.42;1.17;;;;;;;5.69;59.58;97327.91;10480775;28;20071;-73
2023/01/16 14:37:03;;;;;;;3.30;1.58;;;;;;;5.41;60.45;97300.75;10480844;28;20040;-72
2023/01/16 14:58:41;;;;;;;5.72;1.38;;;;;;;5.29;59.42;97275.38;10506775;28;20557;-72
2023/01/16 15:03:45;;;;;;;3.47;1.05;;;;;;;5.43;58.25;97267.63;10488828;28;20060;-72
2023/01/16 15:08:47;;;;;;;3.05;1.10;;;;;;;5.35;57.82;97251.56;10506673;28;20044;-72
2023/01/16 15:24:49;;;;;;;3.10;0.93;;;;;;;5.32;57.29;97223.13;10504774;28;20052;-72
2023/01/16 15:29:56;;;;;;;2.42;1.17;;;;;;;5.28;57.69;97213.78;10487133;28;20447;-73
2023/01/16 15:35:14;;;;;;;;;;;;;;;5.12;58.77;97202.53;10506571;28;20060;-73
2023/01/16 15:40:27;;;;;;;3.80;1.67;;;;;;;4.85;59.21;97195.31;10487178;28;20069;-73
2023/01/16 15:50:52;;;;;;;3.65;1.70;;;;;;;5.07;58.24;97172.38;10485710;28;20094;-73
2023/01/16 15:56:01;;;;;;;2.15;1.60;;;;;;;4.76;59.91;97167.19;10502746;28;20051;-73
2023/01/16 16:01:05;;;;;;;3.63;1.58;;;;;;;4.78;60.22;97160.97;10503306;28;20036;-73
2023/01/16 16:06:10;;;;;;;3.55;1.98;;;;;;;4.95;59.79;97167.00;10503090;28;20044;-73
2023/01/16 16:27:43;;;;;;;4.05;1.83;;;;;;;4.58;61.55;97139.56;10483551;28;20106;-72
2023/01/16 16:32:46;;;;;;;3.13;1.60;;;;;;;4.53;61.97;97142.41;10482696;28;20110;-74
2023/01/16 16:37:47;;;;;;;6.88;2.13;;;;;;;4.38;62.54;97151.00;10477564;28;20037;-74
2023/01/16 16:43:09;;;;;;;6.57;2.00;;;;;;;4.29;62.76;97147.13;10494703;28;20375;-73
2023/01/16 16:48:24;;;;;;;2.45;1.88;;;;;;;4.27;62.55;97146.38;10441876;28;20382;-73
2023/01/16 16:53:26;;;;;;;4.32;2.38;;;;;;;4.22;62.51;97132.78;10481972;28;20047;-73
2023/01/16 16:58:28;;;;;;;3.47;2.13;;;;;;;4.42;62.00;97135.16;10500400;28;20040;-73
2023/01/16 17:03:30;;;;;;;2.20;1.50;;;;;;;4.09;63.52;97132.59;10457598;28;20041;-74
2023/01/16 17:08:32;;;;;;;4.63;1.75;;;;;;;4.40;63.12;97129.22;10499965;28;20070;-74
2023/01/16 17:13:34;;;;;;;5.47;1.95;;;;;;;4.11;63.92;97117.75;10501173;28;20436;-74
2023/01/16 17:18:35;;;;;;;3.17;1.75;;;;;;;4.30;63.41;97117.63;10461994;28;20139;-74
2023/01/16 17:23:37;;;;;;;4.25;2.17;;;;;;;4.47;62.98;97109.75;10458003;28;20043;-75
2023/01/16 17:28:39;;;;;;;4.70;2.72;;;;;;;4.64;62.30;97105.38;10490892;28;20045;-73
2023/01/16 17:33:41;;;;;;;3.78;2.10;;;;;;;4.74;62.33;97091.81;10465882;28;20045;-74
2023/01/16 17:38:42;;;;;;;3.78;2.47;;;;;;;4.82;62.07;97086.16;10440499;28;20048;-75
2023/01/16 17:49:04;;;;;;;2.90;1.73;;;;;;;4.92;61.70;97079.53;10498293;28;20048;-74
2023/01/16 17:54:06;;;;;;;2.00;1.60;;;;;;;5.01;61.15;97071.19;10499869;28;20048;-74
2023/01/16 17:59:08;;;;;;;1.90;1.55;;;;;;;5.05;61.24;97064.91;10498607;28;20036;-73
2023/01/16 18:04:10;;;;;;;2.95;1.63;;;;;;;5.11;61.14;97052.44;10499424;28;20044;-75
2023/01/16 18:09:14;;;;;;;2.25;1.50;;;;;;;5.19;60.94;97050.25;10441797;28;20055;-74
2023/01/16 18:19:36;;;;;;;4.05;2.00;;;;;;;5.00;61.74;97050.44;10456340;28;20053;-73
2023/01/16 18:24:43;;;;;;;2.53;1.50;;;;;;;4.83;62.56;97046.22;10456469;28;20115;-75
2023/01/16 18:29:45;;;;;;;3.30;1.30;;;;;;;4.87;63.22;97039.06;10439459;28;20037;-75
2023/01/16 18:34:53;;;;;;;1.67;1.30;;;;;;;4.68;63.85;97034.88;10439310;28;20095;-75
2023/01/16 19:02:00;;;;;;;1.60;1.17;;;;;;;4.53;65.88;97004.53;10479682;28;20078;-74
2023/01/16 19:07:08;;;;;;;1.98;1.20;;;;;;;4.57;65.79;96990.44;10482326;28;20041;-74
2023/01/16 19:12:11;;;;;;;2.40;1.63;;;;;;;4.40;66.54;96972.34;10481364;28;20041;-75
2023/01/16 19:17:13;;;;;;;3.35;1.42;;;;;;;4.32;67.30;96962.34;10480233;28;20049;-74
2023/01/16 19:22:14;;;;;;;3.20;1.20;;;;;;;4.32;67.29;96970.16;10480734;28;20091;-75
2023/01/16 19:27:20;;;;;;;3.60;1.23;;;;;;;4.28;67.42;96963.44;10479983;28;20052;-75
2023/01/16 19:32:24;;;;;;;2.95;1.27;;;;;;;4.40;67.21;96948.94;10503274;28;20043;-75
2023/01/16 19:37:25;;;;;;;1.52;1.17;;;;;;;4.27;67.40;96914.97;10505871;28;20098;-75
2023/01/16 19:47:51;;;;;;;2.20;1.40;;;;;;;4.24;67.73;96915.13;10488203;28;20049;-76
2023/01/16 19:52:52;;;;;;;1.88;1.35;;;;;;;4.28;67.26;96920.06;10505797;28;20040;-75
2023/01/16 19:57:54;;;;;;;2.42;1.38;;;;;;;4.18;68.13;96942.31;10504832;28;20040;-74
2023/01/16 20:02:56;;;;;;;2.10;1.33;;;;;;;4.18;67.91;96954.50;10486559;28;20502;-75
2023/01/16 20:07:58;;;;;;;2.47;1.52;;;;;;;4.17;67.77;96934.63;10504597;28;20045;-75
2023/01/16 20:12:59;;;;;;;2.50;1.30;;;;;;;4.27;66.85;96907.19;10504941;28;20048;-75
2023/01/16 20:18:01;;;;;;;2.50;1.45;;;;;;;4.19;67.26;96899.78;10504469;28;20563;-74
2023/01/16 20:23:03;;;;;;;2.60;1.60;;;;;;;4.16;67.64;96886.13;10486869;28;20394;-75
2023/01/16 20:28:05;;;;;;;1.70;1.30;;;;;;;4.06;67.82;96875.41;10485204;28;20051;-76
2023/01/16 20:33:08;;;;;;;1.80;1.52;;;;;;;3.92;68.71;96862.34;10502628;28;20116;-75
2023/01/16 20:38:10;;;;;;;1.70;1.33;;;;;;;4.13;68.17;96853.38;10486124;28;20052;-75
2023/01/16 20:48:32;;;;;;;1.90;1.70;;;;;;;4.10;68.01;96831.91;10503730;28;20402;-76
2023/01/16 20:53:35;;;;;;;2.83;1.92;;;;;;;4.14;67.72;96828.19;10504584;28;20032;-75
2023/01/16 20:58:37;;;;;;;2.72;1.83;;;;;;;4.17;67.79;96820.25;10485603;28;20048;-76
2023/01/16 21:03:39;;;;;;;2.30;1.77;;;;;;;3.94;69.03;96814.59;10468513;28;20044;-73
2023/01/16 21:08:44;;;;;;;3.13;1.88;;;;;;;3.83;69.68;96814.34;10485639;28;20048;-73
2023/01/16 21:24:29;;;;;;;2.78;2.20;;;;;;;3.68;70.95;96794.44;10501895;28;20040;-73
2023/01/16 21:29:31;;;;;;;2.95;2.00;;;;;;;3.69;70.63;96788.31;10501572;28;20053;-73
2023/01/16 21:34:37;;;;;;;3.08;1.92;;;;;;;3.57;71.20;96797.59;10484683;28;20048;-73
2023/01/16 21:39:40;;;;;;;3.80;1.70;;;;;;;3.66;71.29;96796.25;10483205;28;20048;-73
2023/01/16 21:50:02;;;;;;;2.35;1.80;;;;;;;3.71;71.00;96779.47;10500682;28;20039;-72
2023/01/16 21:55:06;;;;;;;2.42;2.22;;;;;;;3.77;70.67;96778.31;10501389;28;20486;-73
2023/01/16 22:00:08;;;;;;;2.20;1.70;;;;;;;3.83;70.31;96783.16;10483996;28;20052;-73
2023/01/16 22:05:12;;;;;;;2.15;1.63;;;;;;;3.56;71.56;96779.53;10501574;28;20052;-73
2023/01/16 22:10:13;;;;;;;2.97;1.90;;;;;;;3.55;71.91;96786.47;10499802;28;20036;-72
2023/01/16 22:20:40;;;;;;;2.40;2.10;;;;;;;3.42;72.50;96777.69;10481641;28;20067;-73
2023/01/16 22:25:42;;;;;;;2.38;2.03;;;;;;;3.11;74.20;96778.53;10499249;28;20075;-72
2023/01/16 22:30:48;;;;;;;1.90;1.65;;;;;;;3.37;72.88;96779.72;10500079;28;20494;-74
2023/01/16 22:36:01;;;;;;;2.60;1.77;;;;;;;3.49;72.75;96764.25;10483110;28;20185;-75
2023/01/16 22:41:05;;;;;;;2.42;1.70;;;;;;;3.04;74.72;96742.50;10482912;28;20043;-74
2023/01/16 22:46:22;;;;;;;5.85;2.03;;;;;;;3.15;74.01;96739.34;10501228;28;20405;-74
2023/01/16 22:51:25;;;;;;;6.65;1.70;;;;;;;3.14;73.92;96742.00;10500189;28;20371;-74
2023/01/16 22:56:27;;;;;;;2.38;1.90;;;;;;;3.12;73.98;96744.69;10481717;28;20056;-74
2023/01/16 23:01:29;;;;;;;3.15;2.00;;;;;;;3.09;74.23;96736.22;10499538;28;20043;-74
2023/01/16 23:06:31;;;;;;;2.60;2.00;;;;;;;3.24;73.49;96731.06;10505237;28;20040;-73
2023/01/16 23:11:36;;;;;;;3.72;2.75;;;;;;;3.20;73.89;96733.91;10473133;28;20051;-74
2023/01/16 23:16:40;;;;;;;2.45;2.25;;;;;;;2.99;74.50;96722.94;10508100;28;20080;-74
2023/01/16 23:21:42;;;;;;;3.22;2.80;;;;;;;2.80;75.56;96710.13;10507112;28;20044;-73
2023/01/16 23:26:45;;;;;;;2.90;2.53;;;;;;;3.00;75.18;96722.84;10487941;28;20068;-74
2023/01/16 23:31:48;;;;;;;4.88;3.03;;;;;;;2.78;75.94;96709.34;10506361;28;20105;-73
2023/01/16 23:36:50;;;;;;;3.70;3.40;;;;;;;2.87;75.84;96695.06;10506223;28;20041;-74
2023/01/16 23:47:18;;;;;;;4.07;3.20;;;;;;;2.69;77.05;96676.97;10505557;28;20091;-73
2023/01/16 23:52:25;;;;;;;4.10;3.70;;;;;;;2.62;77.19;96683.41;10505163;28;20490;-73
2023/01/16 23:57:30;;;;;;;4.25;3.85;;;;;;;2.42;77.69;96663.72;10505736;28;20168;-73
